sensor_id;sensor_type;location;lat;lon;timestamp;P1;durP1;ratioP1;P2;durP2;ratioP2
60026;SDS011;45891;53.006;6.512;2023-06-22T00:02:00;31.30;;;20.55;;
60026;SDS011;45891;53.006;6.512;2023-06-22T00:04:26;25.27;;;18.10;;
60026;SDS011;45891;53.006;6.512;2023-06-22T00:06:52;25.15;;;17.63;;
60026;SDS011;45891;53.006;6.512;2023-06-22T00:09:19;25.08;;;17.67;;
60026;SDS011;45891;53.006;6.512;2023-06-22T00:11:45;27.02;;;18.63;;
60026;SDS011;45891;53.006;6.512;2023-06-22T00:14:11;28.05;;;20.65;;
60026;SDS011;45891;53.006;6.512;2023-06-22T00:16:37;25.73;;;19.27;;
60026;SDS011;45891;53.006;6.512;2023-06-22T00:19:03;29.70;;;21.50;;
60026;SDS011;45891;53.006;6.512;2023-06-22T00:21:29;29.75;;;20.23;;
60026;SDS011;45891;53.006;6.512;2023-06-22T00:23:56;27.20;;;19.60;;
60026;SDS011;45891;53.006;6.512;2023-06-22T00:26:22;33.95;;;25.25;;
60026;SDS011;45891;53.006;6.512;2023-06-22T00:28:48;32.08;;;20.95;;
60026;SDS011;45891;53.006;6.512;2023-06-22T00:31:14;27.75;;;19.73;;
60026;SDS011;45891;53.006;6.512;2023-06-22T00:33:41;28.67;;;21.83;;
60026;SDS011;45891;53.006;6.512;2023-06-22T00:36:07;33.80;;;22.75;;
60026;SDS011;45891;53.006;6.512;2023-06-22T00:38:33;29.50;;;21.33;;
60026;SDS011;45891;53.006;6.512;2023-06-22T00:40:59;29.95;;;20.95;;
60026;SDS011;45891;53.006;6.512;2023-06-22T00:43:26;27.67;;;19.23;;
60026;SDS011;45891;53.006;6.512;2023-06-22T00:45:52;25.17;;;19.30;;
60026;SDS011;45891;53.006;6.512;2023-06-22T00:48:22;25.23;;;18.30;;
60026;SDS011;45891;53.006;6.512;2023-06-22T00:50:48;27.77;;;19.70;;
60026;SDS011;45891;53.006;6.512;2023-06-22T00:53:16;30.98;;;23.60;;
60026;SDS011;45891;53.006;6.512;2023-06-22T00:55:44;27.88;;;21.40;;
60026;SDS011;45891;53.006;6.512;2023-06-22T00:58:16;33.35;;;23.13;;
60026;SDS011;45891;53.006;6.512;2023-06-22T01:00:47;29.45;;;23.08;;
60026;SDS011;45891;53.006;6.512;2023-06-22T01:03:14;34.55;;;26.15;;
60026;SDS011;45891;53.006;6.512;2023-06-22T01:05:42;32.13;;;24.10;;
60026;SDS011;45891;53.006;6.512;2023-06-22T01:08:15;39.47;;;27.83;;
60026;SDS011;45891;53.006;6.512;2023-06-22T01:13:25;27.70;;;21.30;;
60026;SDS011;45891;53.006;6.512;2023-06-22T01:16:03;26.30;;;19.33;;
60026;SDS011;45891;53.006;6.512;2023-06-22T01:18:35;22.95;;;18.73;;
60026;SDS011;45891;53.006;6.512;2023-06-22T01:21:05;22.27;;;17.42;;
60026;SDS011;45891;53.006;6.512;2023-06-22T01:26:18;22.48;;;17.95;;
60026;SDS011;45891;53.006;6.512;2023-06-22T01:28:54;24.38;;;18.77;;
60026;SDS011;45891;53.006;6.512;2023-06-22T01:31:23;27.55;;;20.45;;
60026;SDS011;45891;53.006;6.512;2023-06-22T01:33:55;21.92;;;17.23;;
60026;SDS011;45891;53.006;6.512;2023-06-22T01:36:24;22.75;;;16.52;;
60026;SDS011;45891;53.006;6.512;2023-06-22T01:38:52;22.83;;;17.40;;
60026;SDS011;45891;53.006;6.512;2023-06-22T01:41:19;29.30;;;23.42;;
60026;SDS011;45891;53.006;6.512;2023-06-22T01:43:47;24.05;;;20.23;;
60026;SDS011;45891;53.006;6.512;2023-06-22T01:46:14;24.35;;;18.40;;
60026;SDS011;45891;53.006;6.512;2023-06-22T01:48:40;28.13;;;20.85;;
60026;SDS011;45891;53.006;6.512;2023-06-22T01:51:07;21.02;;;16.98;;
60026;SDS011;45891;53.006;6.512;2023-06-22T01:53:33;22.58;;;18.50;;
60026;SDS011;45891;53.006;6.512;2023-06-22T01:55:59;21.42;;;18.45;;
60026;SDS011;45891;53.006;6.512;2023-06-22T01:58:26;22.57;;;17.30;;
60026;SDS011;45891;53.006;6.512;2023-06-22T02:00:56;20.27;;;15.18;;
60026;SDS011;45891;53.006;6.512;2023-06-22T02:03:37;18.52;;;14.68;;
60026;SDS011;45891;53.006;6.512;2023-06-22T02:06:13;19.90;;;15.63;;
60026;SDS011;45891;53.006;6.512;2023-06-22T02:08:47;21.80;;;17.83;;
60026;SDS011;45891;53.006;6.512;2023-06-22T02:11:17;20.95;;;15.98;;
60026;SDS011;45891;53.006;6.512;2023-06-22T02:13:45;19.65;;;16.58;;
60026;SDS011;45891;53.006;6.512;2023-06-22T02:16:13;20.58;;;15.75;;
60026;SDS011;45891;53.006;6.512;2023-06-22T02:18:45;25.23;;;21.95;;
60026;SDS011;45891;53.006;6.512;2023-06-22T02:21:20;25.25;;;19.42;;
60026;SDS011;45891;53.006;6.512;2023-06-22T02:23:46;22.70;;;18.40;;
60026;SDS011;45891;53.006;6.512;2023-06-22T02:26:13;24.95;;;18.83;;
60026;SDS011;45891;53.006;6.512;2023-06-22T02:28:39;21.63;;;17.08;;
60026;SDS011;45891;53.006;6.512;2023-06-22T02:31:05;22.75;;;18.63;;
60026;SDS011;45891;53.006;6.512;2023-06-22T02:33:31;23.27;;;18.33;;
60026;SDS011;45891;53.006;6.512;2023-06-22T02:35:57;21.52;;;17.63;;
60026;SDS011;45891;53.006;6.512;2023-06-22T02:38:23;27.35;;;21.70;;
60026;SDS011;45891;53.006;6.512;2023-06-22T02:40:50;28.13;;;23.50;;
60026;SDS011;45891;53.006;6.512;2023-06-22T02:43:16;25.67;;;21.60;;
60026;SDS011;45891;53.006;6.512;2023-06-22T02:45:42;33.15;;;27.70;;
60026;SDS011;45891;53.006;6.512;2023-06-22T02:48:08;32.03;;;26.08;;
60026;SDS011;45891;53.006;6.512;2023-06-22T02:50:36;22.23;;;18.92;;
60026;SDS011;45891;53.006;6.512;2023-06-22T02:53:02;22.58;;;19.65;;
60026;SDS011;45891;53.006;6.512;2023-06-22T02:55:28;23.88;;;19.83;;
60026;SDS011;45891;53.006;6.512;2023-06-22T02:57:54;34.22;;;25.33;;
60026;SDS011;45891;53.006;6.512;2023-06-22T03:00:20;185.25;;;24.85;;
60026;SDS011;45891;53.006;6.512;2023-06-22T03:02:47;165.43;;;21.40;;
60026;SDS011;45891;53.006;6.512;2023-06-22T03:05:14;60.15;;;21.75;;
60026;SDS011;45891;53.006;6.512;2023-06-22T03:07:43;138.57;;;24.35;;
60026;SDS011;45891;53.006;6.512;2023-06-22T03:10:11;149.65;;;22.05;;
60026;SDS011;45891;53.006;6.512;2023-06-22T03:12:38;106.70;;;23.77;;
60026;SDS011;45891;53.006;6.512;2023-06-22T03:15:05;330.50;;;29.77;;
60026;SDS011;45891;53.006;6.512;2023-06-22T03:17:33;244.23;;;28.90;;
60026;SDS011;45891;53.006;6.512;2023-06-22T03:20:00;26.70;;;20.42;;
60026;SDS011;45891;53.006;6.512;2023-06-22T03:22:26;49.85;;;20.45;;
60026;SDS011;45891;53.006;6.512;2023-06-22T03:24:52;27.50;;;19.65;;
60026;SDS011;45891;53.006;6.512;2023-06-22T03:27:19;54.97;;;23.92;;
60026;SDS011;45891;53.006;6.512;2023-06-22T03:29:45;49.15;;;22.30;;
60026;SDS011;45891;53.006;6.512;2023-06-22T03:32:11;23.75;;;20.15;;
60026;SDS011;45891;53.006;6.512;2023-06-22T03:34:37;27.88;;;19.60;;
60026;SDS011;45891;53.006;6.512;2023-06-22T03:37:03;27.15;;;19.90;;
60026;SDS011;45891;53.006;6.512;2023-06-22T03:39:31;66.38;;;26.63;;
60026;SDS011;45891;53.006;6.512;2023-06-22T03:41:57;72.85;;;24.58;;
60026;SDS011;45891;53.006;6.512;2023-06-22T03:44:23;114.63;;;27.42;;
60026;SDS011;45891;53.006;6.512;2023-06-22T03:46:49;144.82;;;28.83;;
60026;SDS011;45891;53.006;6.512;2023-06-22T03:49:15;41.80;;;26.05;;
60026;SDS011;45891;53.006;6.512;2023-06-22T03:51:41;33.15;;;24.77;;
60026;SDS011;45891;53.006;6.512;2023-06-22T03:54:07;41.85;;;28.23;;
60026;SDS011;45891;53.006;6.512;2023-06-22T03:56:34;61.22;;;28.55;;
60026;SDS011;45891;53.006;6.512;2023-06-22T03:59:00;32.28;;;23.17;;
60026;SDS011;45891;53.006;6.512;2023-06-22T04:01:26;34.97;;;26.23;;
60026;SDS011;45891;53.006;6.512;2023-06-22T04:03:52;22.63;;;19.33;;
60026;SDS011;45891;53.006;6.512;2023-06-22T04:06:18;31.30;;;25.10;;
60026;SDS011;45891;53.006;6.512;2023-06-22T04:08:45;23.98;;;21.10;;
60026;SDS011;45891;53.006;6.512;2023-06-22T04:11:16;27.25;;;20.65;;
60026;SDS011;45891;53.006;6.512;2023-06-22T04:13:43;32.08;;;24.77;;
60026;SDS011;45891;53.006;6.512;2023-06-22T04:16:09;33.08;;;27.35;;
60026;SDS011;45891;53.006;6.512;2023-06-22T04:18:36;34.45;;;27.15;;
60026;SDS011;45891;53.006;6.512;2023-06-22T04:21:02;32.45;;;27.02;;
60026;SDS011;45891;53.006;6.512;2023-06-22T04:23:28;32.35;;;25.48;;
60026;SDS011;45891;53.006;6.512;2023-06-22T04:25:54;34.15;;;28.58;;
60026;SDS011;45891;53.006;6.512;2023-06-22T04:28:22;28.73;;;25.63;;
60026;SDS011;45891;53.006;6.512;2023-06-22T04:30:48;26.90;;;22.85;;
60026;SDS011;45891;53.006;6.512;2023-06-22T04:33:16;30.40;;;26.80;;
60026;SDS011;45891;53.006;6.512;2023-06-22T04:35:44;39.42;;;32.05;;
60026;SDS011;45891;53.006;6.512;2023-06-22T04:38:12;29.27;;;25.23;;
60026;SDS011;45891;53.006;6.512;2023-06-22T04:40:41;36.60;;;30.45;;
60026;SDS011;45891;53.006;6.512;2023-06-22T04:43:07;37.28;;;30.30;;
60026;SDS011;45891;53.006;6.512;2023-06-22T04:45:35;36.05;;;29.00;;
60026;SDS011;45891;53.006;6.512;2023-06-22T04:48:04;36.50;;;28.67;;
60026;SDS011;45891;53.006;6.512;2023-06-22T04:50:30;35.67;;;29.88;;
60026;SDS011;45891;53.006;6.512;2023-06-22T04:52:56;41.30;;;32.60;;
60026;SDS011;45891;53.006;6.512;2023-06-22T04:55:23;36.97;;;30.92;;
60026;SDS011;45891;53.006;6.512;2023-06-22T04:57:51;42.30;;;35.33;;
60026;SDS011;45891;53.006;6.512;2023-06-22T05:00:18;36.70;;;30.05;;
60026;SDS011;45891;53.006;6.512;2023-06-22T05:02:45;40.85;;;34.00;;
60026;SDS011;45891;53.006;6.512;2023-06-22T05:05:12;39.00;;;31.00;;
60026;SDS011;45891;53.006;6.512;2023-06-22T05:07:43;37.30;;;31.80;;
60026;SDS011;45891;53.006;6.512;2023-06-22T05:10:13;39.80;;;32.88;;
60026;SDS011;45891;53.006;6.512;2023-06-22T05:12:39;36.10;;;28.83;;
60026;SDS011;45891;53.006;6.512;2023-06-22T05:15:07;38.20;;;32.88;;
60026;SDS011;45891;53.006;6.512;2023-06-22T05:17:34;41.97;;;33.75;;
60026;SDS011;45891;53.006;6.512;2023-06-22T05:20:02;37.55;;;31.23;;
60026;SDS011;45891;53.006;6.512;2023-06-22T05:22:31;40.95;;;32.38;;
60026;SDS011;45891;53.006;6.512;2023-06-22T05:24:58;40.47;;;32.30;;
60026;SDS011;45891;53.006;6.512;2023-06-22T05:27:24;39.65;;;30.98;;
60026;SDS011;45891;53.006;6.512;2023-06-22T05:29:50;35.20;;;29.25;;
60026;SDS011;45891;53.006;6.512;2023-06-22T05:32:16;38.17;;;30.65;;
60026;SDS011;45891;53.006;6.512;2023-06-22T05:34:42;38.05;;;30.75;;
60026;SDS011;45891;53.006;6.512;2023-06-22T05:37:08;34.97;;;28.38;;
60026;SDS011;45891;53.006;6.512;2023-06-22T05:39:35;41.15;;;30.92;;
60026;SDS011;45891;53.006;6.512;2023-06-22T05:42:04;40.88;;;31.35;;
60026;SDS011;45891;53.006;6.512;2023-06-22T05:44:31;37.40;;;29.00;;
60026;SDS011;45891;53.006;6.512;2023-06-22T05:46:59;35.13;;;29.30;;
60026;SDS011;45891;53.006;6.512;2023-06-22T05:49:25;32.88;;;26.83;;
60026;SDS011;45891;53.006;6.512;2023-06-22T05:51:58;35.22;;;28.10;;
60026;SDS011;45891;53.006;6.512;2023-06-22T05:54:25;32.78;;;25.77;;
60026;SDS011;45891;53.006;6.512;2023-06-22T05:56:53;32.17;;;24.95;;
60026;SDS011;45891;53.006;6.512;2023-06-22T05:59:19;33.53;;;25.52;;
60026;SDS011;45891;53.006;6.512;2023-06-22T06:01:45;32.28;;;25.88;;
60026;SDS011;45891;53.006;6.512;2023-06-22T06:04:18;36.00;;;26.85;;
60026;SDS011;45891;53.006;6.512;2023-06-22T06:06:44;34.08;;;26.33;;
60026;SDS011;45891;53.006;6.512;2023-06-22T06:09:13;31.25;;;24.02;;
60026;SDS011;45891;53.006;6.512;2023-06-22T06:11:39;30.85;;;24.10;;
60026;SDS011;45891;53.006;6.512;2023-06-22T06:14:06;33.70;;;23.92;;
60026;SDS011;45891;53.006;6.512;2023-06-22T06:16:32;31.63;;;22.20;;
60026;SDS011;45891;53.006;6.512;2023-06-22T06:18:58;30.50;;;22.73;;
60026;SDS011;45891;53.006;6.512;2023-06-22T06:21:24;27.73;;;21.15;;
60026;SDS011;45891;53.006;6.512;2023-06-22T06:23:50;28.77;;;21.13;;
60026;SDS011;45891;53.006;6.512;2023-06-22T06:26:16;27.23;;;19.92;;
60026;SDS011;45891;53.006;6.512;2023-06-22T06:28:43;27.20;;;19.50;;
60026;SDS011;45891;53.006;6.512;2023-06-22T06:31:09;24.15;;;17.27;;
60026;SDS011;45891;53.006;6.512;2023-06-22T06:33:37;23.83;;;17.40;;
60026;SDS011;45891;53.006;6.512;2023-06-22T06:36:03;21.48;;;16.60;;
60026;SDS011;45891;53.006;6.512;2023-06-22T06:38:30;23.63;;;15.90;;
60026;SDS011;45891;53.006;6.512;2023-06-22T06:40:57;19.70;;;14.35;;
60026;SDS011;45891;53.006;6.512;2023-06-22T06:43:24;22.87;;;14.50;;
60026;SDS011;45891;53.006;6.512;2023-06-22T06:45:50;19.60;;;14.73;;
60026;SDS011;45891;53.006;6.512;2023-06-22T06:48:16;19.98;;;13.80;;
60026;SDS011;45891;53.006;6.512;2023-06-22T06:50:43;18.63;;;13.27;;
60026;SDS011;45891;53.006;6.512;2023-06-22T06:53:09;19.25;;;13.95;;
60026;SDS011;45891;53.006;6.512;2023-06-22T06:55:36;17.52;;;12.52;;
60026;SDS011;45891;53.006;6.512;2023-06-22T06:58:02;20.90;;;13.82;;
60026;SDS011;45891;53.006;6.512;2023-06-22T07:00:33;18.92;;;13.43;;
60026;SDS011;45891;53.006;6.512;2023-06-22T07:02:59;17.27;;;11.90;;
60026;SDS011;45891;53.006;6.512;2023-06-22T07:05:25;16.95;;;11.00;;
60026;SDS011;45891;53.006;6.512;2023-06-22T07:07:51;17.67;;;10.32;;
60026;SDS011;45891;53.006;6.512;2023-06-22T07:10:18;15.18;;;10.35;;
60026;SDS011;45891;53.006;6.512;2023-06-22T07:12:45;17.83;;;10.07;;
60026;SDS011;45891;53.006;6.512;2023-06-22T07:15:11;13.35;;;9.40;;
60026;SDS011;45891;53.006;6.512;2023-06-22T07:17:38;13.52;;;8.90;;
60026;SDS011;45891;53.006;6.512;2023-06-22T07:20:06;13.15;;;8.60;;
60026;SDS011;45891;53.006;6.512;2023-06-22T07:22:46;12.25;;;8.00;;
60026;SDS011;45891;53.006;6.512;2023-06-22T07:25:12;13.38;;;8.02;;
60026;SDS011;45891;53.006;6.512;2023-06-22T07:27:44;13.50;;;7.32;;
60026;SDS011;45891;53.006;6.512;2023-06-22T07:30:11;14.82;;;7.80;;
60026;SDS011;45891;53.006;6.512;2023-06-22T07:32:38;13.30;;;8.18;;
60026;SDS011;45891;53.006;6.512;2023-06-22T07:35:05;13.18;;;7.68;;
60026;SDS011;45891;53.006;6.512;2023-06-22T07:37:32;12.65;;;6.88;;
60026;SDS011;45891;53.006;6.512;2023-06-22T07:39:59;12.35;;;5.90;;
60026;SDS011;45891;53.006;6.512;2023-06-22T07:42:26;11.15;;;5.55;;
60026;SDS011;45891;53.006;6.512;2023-06-22T07:44:52;11.18;;;5.40;;
60026;SDS011;45891;53.006;6.512;2023-06-22T07:47:19;10.93;;;5.97;;
60026;SDS011;45891;53.006;6.512;2023-06-22T07:49:46;10.93;;;5.70;;
60026;SDS011;45891;53.006;6.512;2023-06-22T07:52:12;11.10;;;5.80;;
60026;SDS011;45891;53.006;6.512;2023-06-22T07:54:38;11.38;;;5.68;;
60026;SDS011;45891;53.006;6.512;2023-06-22T07:57:05;10.48;;;5.90;;
60026;SDS011;45891;53.006;6.512;2023-06-22T07:59:31;13.52;;;6.15;;
60026;SDS011;45891;53.006;6.512;2023-06-22T08:01:57;14.80;;;6.32;;
60026;SDS011;45891;53.006;6.512;2023-06-22T08:04:23;10.55;;;5.93;;
60026;SDS011;45891;53.006;6.512;2023-06-22T08:06:49;10.00;;;4.78;;
60026;SDS011;45891;53.006;6.512;2023-06-22T08:09:15;12.30;;;6.20;;
60026;SDS011;45891;53.006;6.512;2023-06-22T08:11:41;10.15;;;5.25;;
60026;SDS011;45891;53.006;6.512;2023-06-22T08:14:07;12.25;;;6.15;;
60026;SDS011;45891;53.006;6.512;2023-06-22T08:16:33;10.55;;;5.53;;
60026;SDS011;45891;53.006;6.512;2023-06-22T08:19:00;10.85;;;5.43;;
60026;SDS011;45891;53.006;6.512;2023-06-22T08:21:26;12.63;;;5.57;;
60026;SDS011;45891;53.006;6.512;2023-06-22T08:23:52;10.43;;;5.60;;
60026;SDS011;45891;53.006;6.512;2023-06-22T08:26:18;11.90;;;5.90;;
60026;SDS011;45891;53.006;6.512;2023-06-22T08:28:44;10.70;;;5.45;;
60026;SDS011;45891;53.006;6.512;2023-06-22T08:31:10;14.35;;;5.50;;
60026;SDS011;45891;53.006;6.512;2023-06-22T08:33:37;10.95;;;5.43;;
60026;SDS011;45891;53.006;6.512;2023-06-22T08:36:04;11.27;;;5.70;;
60026;SDS011;45891;53.006;6.512;2023-06-22T08:38:31;11.13;;;5.57;;
60026;SDS011;45891;53.006;6.512;2023-06-22T08:40:57;10.98;;;5.28;;
60026;SDS011;45891;53.006;6.512;2023-06-22T08:43:23;11.77;;;6.00;;
60026;SDS011;45891;53.006;6.512;2023-06-22T08:45:49;11.77;;;5.72;;
60026;SDS011;45891;53.006;6.512;2023-06-22T08:48:16;10.85;;;5.50;;
60026;SDS011;45891;53.006;6.512;2023-06-22T08:50:42;12.27;;;5.57;;
60026;SDS011;45891;53.006;6.512;2023-06-22T08:53:08;11.48;;;5.50;;
60026;SDS011;45891;53.006;6.512;2023-06-22T08:55:34;13.02;;;5.25;;
60026;SDS011;45891;53.006;6.512;2023-06-22T08:58:00;11.98;;;5.50;;
60026;SDS011;45891;53.006;6.512;2023-06-22T09:00:27;11.43;;;5.40;;
60026;SDS011;45891;53.006;6.512;2023-06-22T09:02:54;13.00;;;6.13;;
60026;SDS011;45891;53.006;6.512;2023-06-22T09:05:24;11.15;;;5.88;;
60026;SDS011;45891;53.006;6.512;2023-06-22T09:07:51;11.43;;;5.07;;
60026;SDS011;45891;53.006;6.512;2023-06-22T09:10:20;10.38;;;5.38;;
60026;SDS011;45891;53.006;6.512;2023-06-22T09:12:46;10.20;;;5.15;;
60026;SDS011;45891;53.006;6.512;2023-06-22T09:15:12;14.40;;;5.97;;
60026;SDS011;45891;53.006;6.512;2023-06-22T09:17:40;10.35;;;5.18;;
60026;SDS011;45891;53.006;6.512;2023-06-22T09:20:06;11.07;;;5.40;;
60026;SDS011;45891;53.006;6.512;2023-06-22T09:22:35;12.43;;;5.57;;
60026;SDS011;45891;53.006;6.512;2023-06-22T09:25:01;11.57;;;5.80;;
60026;SDS011;45891;53.006;6.512;2023-06-22T09:27:28;10.05;;;5.13;;
60026;SDS011;45891;53.006;6.512;2023-06-22T09:29:54;12.32;;;5.40;;
60026;SDS011;45891;53.006;6.512;2023-06-22T09:32:21;9.65;;;5.18;;
60026;SDS011;45891;53.006;6.512;2023-06-22T09:34:47;9.40;;;4.43;;
60026;SDS011;45891;53.006;6.512;2023-06-22T09:37:13;9.85;;;5.03;;
60026;SDS011;45891;53.006;6.512;2023-06-22T09:39:39;9.65;;;5.10;;
60026;SDS011;45891;53.006;6.512;2023-06-22T09:42:05;10.60;;;4.70;;
60026;SDS011;45891;53.006;6.512;2023-06-22T09:44:32;11.68;;;4.45;;
60026;SDS011;45891;53.006;6.512;2023-06-22T09:46:58;10.15;;;4.57;;
60026;SDS011;45891;53.006;6.512;2023-06-22T09:49:24;13.38;;;5.50;;
60026;SDS011;45891;53.006;6.512;2023-06-22T09:51:50;10.93;;;5.20;;
60026;SDS011;45891;53.006;6.512;2023-06-22T09:54:17;9.65;;;4.70;;
60026;SDS011;45891;53.006;6.512;2023-06-22T09:56:44;10.63;;;5.07;;
60026;SDS011;45891;53.006;6.512;2023-06-22T09:59:10;9.45;;;4.78;;
60026;SDS011;45891;53.006;6.512;2023-06-22T10:01:36;13.18;;;5.97;;
60026;SDS011;45891;53.006;6.512;2023-06-22T10:04:02;10.73;;;5.25;;
60026;SDS011;45891;53.006;6.512;2023-06-22T10:06:28;10.75;;;4.63;;
60026;SDS011;45891;53.006;6.512;2023-06-22T10:08:54;10.00;;;4.80;;
60026;SDS011;45891;53.006;6.512;2023-06-22T10:11:20;10.43;;;5.05;;
60026;SDS011;45891;53.006;6.512;2023-06-22T10:13:52;10.68;;;5.20;;
60026;SDS011;45891;53.006;6.512;2023-06-22T10:16:18;9.82;;;4.55;;
60026;SDS011;45891;53.006;6.512;2023-06-22T10:18:44;9.68;;;4.13;;
60026;SDS011;45891;53.006;6.512;2023-06-22T10:21:10;11.05;;;4.80;;
60026;SDS011;45891;53.006;6.512;2023-06-22T10:23:36;10.18;;;4.70;;
60026;SDS011;45891;53.006;6.512;2023-06-22T10:26:02;13.10;;;5.53;;
60026;SDS011;45891;53.006;6.512;2023-06-22T10:28:29;9.43;;;5.43;;
60026;SDS011;45891;53.006;6.512;2023-06-22T10:30:55;10.43;;;5.28;;
60026;SDS011;45891;53.006;6.512;2023-06-22T10:33:21;10.98;;;5.03;;
60026;SDS011;45891;53.006;6.512;2023-06-22T10:35:47;11.90;;;4.95;;
60026;SDS011;45891;53.006;6.512;2023-06-22T10:38:13;10.00;;;4.70;;
60026;SDS011;45891;53.006;6.512;2023-06-22T10:40:39;10.63;;;4.63;;
60026;SDS011;45891;53.006;6.512;2023-06-22T10:43:05;10.88;;;4.55;;
60026;SDS011;45891;53.006;6.512;2023-06-22T10:45:32;9.90;;;3.70;;
60026;SDS011;45891;53.006;6.512;2023-06-22T10:47:58;8.93;;;3.63;;
60026;SDS011;45891;53.006;6.512;2023-06-22T10:50:24;10.13;;;4.10;;
60026;SDS011;45891;53.006;6.512;2023-06-22T10:52:51;8.95;;;3.80;;
60026;SDS011;45891;53.006;6.512;2023-06-22T10:55:17;8.63;;;4.13;;
60026;SDS011;45891;53.006;6.512;2023-06-22T10:57:44;9.95;;;3.50;;
60026;SDS011;45891;53.006;6.512;2023-06-22T11:00:13;7.85;;;3.30;;
60026;SDS011;45891;53.006;6.512;2023-06-22T11:02:41;9.05;;;3.90;;
60026;SDS011;45891;53.006;6.512;2023-06-22T11:05:07;10.40;;;3.70;;
60026;SDS011;45891;53.006;6.512;2023-06-22T11:07:33;9.05;;;3.80;;
60026;SDS011;45891;53.006;6.512;2023-06-22T11:09:59;11.85;;;4.20;;
60026;SDS011;45891;53.006;6.512;2023-06-22T11:12:25;10.52;;;4.32;;
60026;SDS011;45891;53.006;6.512;2023-06-22T11:14:52;10.05;;;3.85;;
60026;SDS011;45891;53.006;6.512;2023-06-22T11:17:18;9.32;;;3.70;;
60026;SDS011;45891;53.006;6.512;2023-06-22T11:19:44;10.63;;;4.10;;
60026;SDS011;45891;53.006;6.512;2023-06-22T11:22:10;8.43;;;3.85;;
60026;SDS011;45891;53.006;6.512;2023-06-22T11:24:37;9.98;;;4.43;;
60026;SDS011;45891;53.006;6.512;2023-06-22T11:27:03;9.50;;;3.90;;
60026;SDS011;45891;53.006;6.512;2023-06-22T11:29:29;8.70;;;3.70;;
60026;SDS011;45891;53.006;6.512;2023-06-22T11:31:56;10.00;;;3.80;;
60026;SDS011;45891;53.006;6.512;2023-06-22T11:34:22;9.40;;;3.70;;
60026;SDS011;45891;53.006;6.512;2023-06-22T11:36:48;11.13;;;4.00;;
60026;SDS011;45891;53.006;6.512;2023-06-22T11:39:14;8.68;;;3.67;;
60026;SDS011;45891;53.006;6.512;2023-06-22T11:41:41;8.80;;;3.17;;
60026;SDS011;45891;53.006;6.512;2023-06-22T11:44:07;11.73;;;3.63;;
60026;SDS011;45891;53.006;6.512;2023-06-22T11:46:34;8.27;;;3.90;;
60026;SDS011;45891;53.006;6.512;2023-06-22T11:49:00;11.27;;;3.55;;
60026;SDS011;45891;53.006;6.512;2023-06-22T11:51:27;7.88;;;3.70;;
60026;SDS011;45891;53.006;6.512;2023-06-22T11:53:53;10.88;;;4.00;;
60026;SDS011;45891;53.006;6.512;2023-06-22T11:56:19;9.80;;;4.07;;
60026;SDS011;45891;53.006;6.512;2023-06-22T11:58:45;10.10;;;4.03;;
60026;SDS011;45891;53.006;6.512;2023-06-22T12:01:11;12.02;;;4.10;;
60026;SDS011;45891;53.006;6.512;2023-06-22T12:03:41;10.75;;;4.20;;
60026;SDS011;45891;53.006;6.512;2023-06-22T12:06:09;10.32;;;3.63;;
60026;SDS011;45891;53.006;6.512;2023-06-22T12:08:35;11.00;;;4.28;;
60026;SDS011;45891;53.006;6.512;2023-06-22T12:11:01;9.27;;;4.30;;
60026;SDS011;45891;53.006;6.512;2023-06-22T12:13:27;10.05;;;4.35;;
60026;SDS011;45891;53.006;6.512;2023-06-22T12:15:53;9.80;;;4.05;;
60026;SDS011;45891;53.006;6.512;2023-06-22T12:18:20;8.63;;;3.90;;
60026;SDS011;45891;53.006;6.512;2023-06-22T12:20:47;8.27;;;3.65;;
60026;SDS011;45891;53.006;6.512;2023-06-22T12:23:14;8.70;;;4.05;;
60026;SDS011;45891;53.006;6.512;2023-06-22T12:25:40;12.10;;;4.03;;
60026;SDS011;45891;53.006;6.512;2023-06-22T12:28:06;10.90;;;4.28;;
60026;SDS011;45891;53.006;6.512;2023-06-22T12:30:33;8.65;;;3.88;;
60026;SDS011;45891;53.006;6.512;2023-06-22T12:32:59;9.80;;;3.65;;
60026;SDS011;45891;53.006;6.512;2023-06-22T12:35:25;8.95;;;3.97;;
60026;SDS011;45891;53.006;6.512;2023-06-22T12:37:51;9.05;;;4.20;;
60026;SDS011;45891;53.006;6.512;2023-06-22T12:40:18;8.80;;;4.10;;
60026;SDS011;45891;53.006;6.512;2023-06-22T12:42:45;7.95;;;3.72;;
60026;SDS011;45891;53.006;6.512;2023-06-22T12:45:11;9.57;;;4.22;;
60026;SDS011;45891;53.006;6.512;2023-06-22T12:47:37;9.70;;;4.25;;
60026;SDS011;45891;53.006;6.512;2023-06-22T12:50:04;10.18;;;4.47;;
60026;SDS011;45891;53.006;6.512;2023-06-22T12:52:30;10.65;;;3.78;;
60026;SDS011;45891;53.006;6.512;2023-06-22T12:54:59;8.98;;;4.20;;
60026;SDS011;45891;53.006;6.512;2023-06-22T12:57:26;9.07;;;4.80;;
60026;SDS011;45891;53.006;6.512;2023-06-22T12:59:52;9.57;;;4.70;;
60026;SDS011;45891;53.006;6.512;2023-06-22T13:02:18;13.32;;;5.20;;
60026;SDS011;45891;53.006;6.512;2023-06-22T13:04:44;67.90;;;9.57;;
60026;SDS011;45891;53.006;6.512;2023-06-22T13:07:10;20.30;;;5.65;;
60026;SDS011;45891;53.006;6.512;2023-06-22T13:09:39;12.52;;;4.90;;
60026;SDS011;45891;53.006;6.512;2023-06-22T13:12:05;10.38;;;5.50;;
60026;SDS011;45891;53.006;6.512;2023-06-22T13:14:32;9.75;;;4.38;;
60026;SDS011;45891;53.006;6.512;2023-06-22T13:16:58;9.80;;;4.75;;
60026;SDS011;45891;53.006;6.512;2023-06-22T13:19:24;9.98;;;5.03;;
60026;SDS011;45891;53.006;6.512;2023-06-22T13:21:51;9.52;;;4.70;;
60026;SDS011;45891;53.006;6.512;2023-06-22T13:24:17;13.70;;;5.47;;
60026;SDS011;45891;53.006;6.512;2023-06-22T13:26:43;12.75;;;5.20;;
60026;SDS011;45891;53.006;6.512;2023-06-22T13:29:09;11.50;;;5.13;;
60026;SDS011;45891;53.006;6.512;2023-06-22T13:31:36;15.02;;;6.03;;
60026;SDS011;45891;53.006;6.512;2023-06-22T13:34:03;13.52;;;6.25;;
60026;SDS011;45891;53.006;6.512;2023-06-22T13:36:29;11.43;;;6.40;;
60026;SDS011;45891;53.006;6.512;2023-06-22T13:38:56;13.27;;;6.78;;
60026;SDS011;45891;53.006;6.512;2023-06-22T13:41:22;12.45;;;7.18;;
60026;SDS011;45891;53.006;6.512;2023-06-22T13:43:48;13.48;;;7.00;;
60026;SDS011;45891;53.006;6.512;2023-06-22T13:46:14;12.80;;;6.60;;
60026;SDS011;45891;53.006;6.512;2023-06-22T13:48:40;13.70;;;6.60;;
60026;SDS011;45891;53.006;6.512;2023-06-22T13:51:07;13.10;;;7.35;;
60026;SDS011;45891;53.006;6.512;2023-06-22T13:53:33;12.53;;;7.73;;
60026;SDS011;45891;53.006;6.512;2023-06-22T13:55:59;12.27;;;7.28;;
60026;SDS011;45891;53.006;6.512;2023-06-22T13:58:25;13.25;;;7.40;;
60026;SDS011;45891;53.006;6.512;2023-06-22T14:00:51;14.20;;;7.38;;
60026;SDS011;45891;53.006;6.512;2023-06-22T14:03:17;14.15;;;7.68;;
60026;SDS011;45891;53.006;6.512;2023-06-22T14:05:43;14.25;;;7.50;;
60026;SDS011;45891;53.006;6.512;2023-06-22T14:08:10;14.48;;;7.53;;
60026;SDS011;45891;53.006;6.512;2023-06-22T14:10:37;14.07;;;6.90;;
60026;SDS011;45891;53.006;6.512;2023-06-22T14:13:03;11.93;;;6.75;;
60026;SDS011;45891;53.006;6.512;2023-06-22T14:15:31;15.05;;;7.00;;
60026;SDS011;45891;53.006;6.512;2023-06-22T14:17:57;15.15;;;7.85;;
60026;SDS011;45891;53.006;6.512;2023-06-22T14:20:24;11.35;;;6.72;;
60026;SDS011;45891;53.006;6.512;2023-06-22T14:22:50;11.10;;;6.88;;
60026;SDS011;45891;53.006;6.512;2023-06-22T14:25:16;12.73;;;7.05;;
60026;SDS011;45891;53.006;6.512;2023-06-22T14:27:42;12.95;;;7.00;;
60026;SDS011;45891;53.006;6.512;2023-06-22T14:30:09;14.75;;;7.10;;
60026;SDS011;45891;53.006;6.512;2023-06-22T14:32:36;13.23;;;6.07;;